createdAt,value
2018-06-03T00:00:19.510Z,83.65
2018-06-03T00:02:47.774Z,83.75
2018-06-03T00:05:16.011Z,83.46
2018-06-03T00:07:44.169Z,84.14
2018-06-03T00:10:12.285Z,84.25
2018-06-03T00:12:40.456Z,84.68
2018-06-03T00:15:08.591Z,84.82
2018-06-03T00:17:36.711Z,85.01
2018-06-03T00:20:04.843Z,85.51
2018-06-03T00:22:32.975Z,85.67
2018-06-03T00:25:01.146Z,85.84
2018-06-03T00:27:29.279Z,86.36
2018-06-03T00:29:57.408Z,86.54
2018-06-03T00:32:25.560Z,87.69
2018-06-03T00:34:53.709Z,87.49
2018-06-03T00:37:21.825Z,87.65
2018-06-03T00:39:49.964Z,87.81
2018-06-03T00:42:18.129Z,87.64
2018-06-03T00:44:46.247Z,87.64
2018-06-03T00:47:14.391Z,87.96
2018-06-03T00:49:42.530Z,87.95
2018-06-03T00:52:10.655Z,87.91
2018-06-03T00:54:38.797Z,88.15
2018-06-03T00:57:09.777Z,88.17
2018-06-03T00:59:37.922Z,88.35
2018-06-03T01:02:06.060Z,88.23
2018-06-03T01:04:34.200Z,88.50
2018-06-03T01:07:02.593Z,88.30
2018-06-03T01:09:30.711Z,88.33
2018-06-03T01:11:58.851Z,88.64
2018-06-03T01:14:27.003Z,88.64
2018-06-03T01:16:55.149Z,88.60
2018-06-03T01:19:23.302Z,88.66
2018-06-03T01:21:51.446Z,88.53
2018-06-03T01:24:19.575Z,88.56
2018-06-03T01:26:47.728Z,88.98
2018-06-03T01:29:15.933Z,88.97
2018-06-03T01:31:44.186Z,88.82
2018-06-03T01:34:12.345Z,88.57
2018-06-03T01:36:40.485Z,88.60
2018-06-03T01:39:08.604Z,88.85
2018-06-03T01:41:36.769Z,89.04
2018-06-03T01:44:04.893Z,88.73
2018-06-03T01:46:33.042Z,88.93
2018-06-03T01:49:01.189Z,88.78
2018-06-03T01:51:29.325Z,88.56
2018-06-03T01:53:58.057Z,88.79
2018-06-03T01:56:26.211Z,89.17
2018-06-03T01:58:54.327Z,89.28
2018-06-03T02:01:22.472Z,89.31
2018-06-03T02:03:50.609Z,89.26
2018-06-03T02:06:18.767Z,89.38
2018-06-03T02:08:46.906Z,89.33
2018-06-03T02:11:15.039Z,89.22
2018-06-03T02:13:43.186Z,89.40
2018-06-03T02:16:11.345Z,89.55
2018-06-03T02:18:39.460Z,89.41
2018-06-03T02:21:07.633Z,89.50
2018-06-03T02:23:35.775Z,89.41
2018-06-03T02:26:03.884Z,89.40
2018-06-03T02:28:32.037Z,89.61
2018-06-03T02:31:00.169Z,90.01
2018-06-03T02:33:28.319Z,90.07
2018-06-03T02:35:56.466Z,90.12
2018-06-03T02:38:24.663Z,89.94
2018-06-03T02:40:52.794Z,89.84
2018-06-03T02:43:20.927Z,89.91
2018-06-03T02:45:49.117Z,89.95
2018-06-03T02:48:17.275Z,89.91
2018-06-03T02:50:45.400Z,90.12
2018-06-03T02:53:13.526Z,90.05
2018-06-03T02:55:42.127Z,89.83
2018-06-03T02:58:10.288Z,89.91
2018-06-03T03:00:38.407Z,89.84
2018-06-03T03:03:06.562Z,90.06
2018-06-03T03:05:34.692Z,89.91
2018-06-03T03:08:02.808Z,90.36
2018-06-03T03:10:31.163Z,90.31
2018-06-03T03:12:59.295Z,90.23
2018-06-03T03:15:27.430Z,90.37
2018-06-03T03:17:55.578Z,90.50
2018-06-03T03:20:23.714Z,90.66
2018-06-03T03:22:51.866Z,90.55
2018-06-03T03:25:19.998Z,90.60
2018-06-03T03:27:48.187Z,90.59
2018-06-03T03:30:16.416Z,90.70
2018-06-03T03:32:44.565Z,90.82
2018-06-03T03:35:12.714Z,90.80
2018-06-03T03:37:40.850Z,90.73
2018-06-03T03:40:08.990Z,91.09
2018-06-03T03:42:37.112Z,90.97
2018-06-03T03:45:05.250Z,91.00
2018-06-03T03:47:33.407Z,91.05
2018-06-03T03:50:01.546Z,91.12
2018-06-03T03:52:29.700Z,91.01
2018-06-03T03:54:57.819Z,91.02
2018-06-03T03:57:25.958Z,91.34
2018-06-03T03:59:54.117Z,91.20
2018-06-03T04:02:22.254Z,91.28
2018-06-03T04:04:50.369Z,91.17
2018-06-03T04:08:00.297Z,91.11
2018-06-03T04:10:28.458Z,91.11
2018-06-03T04:12:56.598Z,91.10
2018-06-03T04:15:24.725Z,91.11
2018-06-03T04:17:52.866Z,91.01
2018-06-03T04:20:20.992Z,90.91
2018-06-03T04:22:49.138Z,90.95
2018-06-03T04:25:17.287Z,91.01
2018-06-03T04:27:45.457Z,91.12
2018-06-03T04:30:13.594Z,91.11
2018-06-03T04:32:41.719Z,91.10
2018-06-03T04:35:09.862Z,91.20
2018-06-03T04:37:38.024Z,91.11
2018-06-03T04:40:06.177Z,91.00
2018-06-03T04:42:34.310Z,90.91
2018-06-03T04:45:02.437Z,90.78
2018-06-03T04:47:30.570Z,90.80
2018-06-03T04:49:58.723Z,90.79
2018-06-03T04:52:26.859Z,91.00
2018-06-03T04:54:55.012Z,91.04
2018-06-03T04:57:23.142Z,90.91
2018-06-03T04:59:51.442Z,91.15
2018-06-03T05:02:20.408Z,91.18
2018-06-03T05:04:48.632Z,91.18
2018-06-03T05:07:16.789Z,91.31
2018-06-03T05:09:44.909Z,91.09
2018-06-03T05:12:13.453Z,91.02
2018-06-03T05:14:41.985Z,90.92
2018-06-03T05:17:10.152Z,90.68
2018-06-03T05:19:38.290Z,90.74
2018-06-03T05:22:06.450Z,90.60
2018-06-03T05:24:34.695Z,90.57
2018-06-03T05:27:02.828Z,90.87
2018-06-03T05:29:30.943Z,90.65
2018-06-03T05:31:59.089Z,90.59
2018-06-03T05:34:27.236Z,90.40
2018-06-03T05:36:55.395Z,90.10
2018-06-03T05:39:23.535Z,89.99
2018-06-03T05:41:51.680Z,90.52
2018-06-03T05:44:19.822Z,90.23
2018-06-03T05:46:47.958Z,89.85
2018-06-03T05:49:16.125Z,90.09
2018-06-03T05:51:44.268Z,89.77
2018-06-03T05:54:12.398Z,89.19
2018-06-03T05:56:40.537Z,89.15
2018-06-03T05:59:08.682Z,88.23
2018-06-03T06:01:36.818Z,88.00
2018-06-03T06:04:04.967Z,88.37
2018-06-03T06:06:33.098Z,88.72
2018-06-03T06:09:01.255Z,88.84
2018-06-03T06:11:29.370Z,89.17
2018-06-03T06:13:57.500Z,88.88
2018-06-03T06:16:25.636Z,89.15
2018-06-03T06:18:53.751Z,88.87
2018-06-03T06:21:21.898Z,88.35
2018-06-03T06:23:50.029Z,88.62
2018-06-03T06:26:18.201Z,88.49
2018-06-03T06:28:46.335Z,88.43
2018-06-03T06:31:14.476Z,88.16
2018-06-03T06:33:42.603Z,87.63
2018-06-03T06:36:10.754Z,87.26
2018-06-03T06:38:38.973Z,86.91
2018-06-03T06:41:07.103Z,86.85
2018-06-03T06:43:35.228Z,86.81
2018-06-03T06:46:03.370Z,87.88
2018-06-03T06:48:31.524Z,87.92
2018-06-03T06:50:59.678Z,87.44
2018-06-03T06:53:27.828Z,86.69
2018-06-03T06:55:56.012Z,87.14
2018-06-03T06:58:24.162Z,87.25
2018-06-03T07:00:52.301Z,87.25
2018-06-03T07:03:20.525Z,87.27
2018-06-03T07:05:48.634Z,87.30
2018-06-03T07:08:16.770Z,87.22
2018-06-03T07:10:45.184Z,87.18
2018-06-03T07:13:13.340Z,87.06
2018-06-03T07:15:41.460Z,86.84
2018-06-03T07:18:09.623Z,87.56
2018-06-03T07:20:37.736Z,87.48
2018-06-03T07:23:05.895Z,87.19
2018-06-03T07:25:34.065Z,86.54
2018-06-03T07:28:02.366Z,87.09
2018-06-03T07:30:30.496Z,86.59
2018-06-03T07:32:58.634Z,86.70
2018-06-03T07:35:26.756Z,87.28
2018-06-03T07:37:54.889Z,87.32
2018-06-03T07:40:23.035Z,86.67
2018-06-03T07:42:51.170Z,85.50
2018-06-03T07:45:19.334Z,84.90
2018-06-03T07:47:47.490Z,84.61
2018-06-03T07:50:15.951Z,84.78
2018-06-03T07:52:44.115Z,84.77
2018-06-03T07:55:12.228Z,84.95
2018-06-03T07:57:40.385Z,84.39
2018-06-03T08:00:08.538Z,84.18
2018-06-03T08:02:36.663Z,84.00
2018-06-03T08:05:04.803Z,83.77
2018-06-03T08:07:32.942Z,83.28
2018-06-03T08:10:01.064Z,83.44
2018-06-03T08:12:29.222Z,83.16
2018-06-03T08:14:57.350Z,83.46
2018-06-03T08:17:25.495Z,83.37
2018-06-03T08:19:53.612Z,83.25
2018-06-03T08:22:21.732Z,83.05
2018-06-03T08:24:49.864Z,83.07
2018-06-03T08:27:18.002Z,82.73
2018-06-03T08:29:46.146Z,82.48
2018-06-03T08:32:14.353Z,81.76
2018-06-03T08:34:42.473Z,81.68
2018-06-03T08:37:10.633Z,81.74
2018-06-03T08:39:38.762Z,80.78
2018-06-03T08:42:06.901Z,81.44
2018-06-03T08:44:35.032Z,81.52
2018-06-03T08:47:03.161Z,81.48
2018-06-03T08:49:31.287Z,80.41
2018-06-03T08:51:59.417Z,80.81
2018-06-03T08:54:27.579Z,81.23
2018-06-03T08:56:55.720Z,81.36
2018-06-03T08:59:23.842Z,80.74
2018-06-03T09:01:52.613Z,80.70
2018-06-03T09:04:20.757Z,80.94
2018-06-03T09:06:48.906Z,80.97
2018-06-03T09:09:17.065Z,81.45
2018-06-03T09:11:45.187Z,82.21
2018-06-03T09:14:13.353Z,82.62
2018-06-03T09:16:41.479Z,82.86
2018-06-03T09:19:10.560Z,82.75
2018-06-03T09:21:38.686Z,82.09
2018-06-03T09:24:06.853Z,82.20
2018-06-03T09:26:34.970Z,82.42
2018-06-03T09:29:03.106Z,82.31
2018-06-03T09:31:31.233Z,81.68
2018-06-03T09:33:59.782Z,81.77
2018-06-03T09:36:27.896Z,81.47
2018-06-03T09:38:56.035Z,80.57
2018-06-03T09:41:24.234Z,81.09
2018-06-03T09:43:52.399Z,81.52
2018-06-03T09:46:20.560Z,80.96
2018-06-03T09:48:48.741Z,80.23
2018-06-03T09:51:16.877Z,79.54
2018-06-03T09:53:45.000Z,79.32
2018-06-03T09:56:13.138Z,78.42
2018-06-03T09:58:41.342Z,78.49
2018-06-03T10:01:09.429Z,78.21
2018-06-03T10:03:37.562Z,77.94
2018-06-03T10:06:05.722Z,78.16
2018-06-03T10:08:33.919Z,77.58
2018-06-03T10:11:02.080Z,77.32
2018-06-03T10:13:30.210Z,76.68
2018-06-03T10:15:58.339Z,76.76
2018-06-03T10:18:26.501Z,76.45
2018-06-03T10:20:54.645Z,75.07
2018-06-03T10:23:22.795Z,75.54
2018-06-03T10:25:50.970Z,75.43
2018-06-03T10:28:19.102Z,74.91
2018-06-03T10:30:47.238Z,75.23
2018-06-03T10:33:15.367Z,75.19
2018-06-03T10:35:43.529Z,74.17
2018-06-03T10:38:11.664Z,73.98
2018-06-03T10:40:39.805Z,75.37
2018-06-03T10:43:07.970Z,74.37
2018-06-03T10:45:36.104Z,75.23
2018-06-03T10:48:04.276Z,75.28
2018-06-03T10:50:32.406Z,74.59
2018-06-03T10:53:00.540Z,74.28
2018-06-03T10:55:28.685Z,73.54
2018-06-03T10:57:56.837Z,74.33
2018-06-03T11:00:24.973Z,73.34
2018-06-03T11:02:53.132Z,72.04
2018-06-03T11:05:21.231Z,71.95
2018-06-03T11:07:49.384Z,72.04
2018-06-03T11:10:17.520Z,70.79
2018-06-03T11:12:45.821Z,71.18
2018-06-03T11:15:13.970Z,71.64
2018-06-03T11:17:42.121Z,71.63
2018-06-03T11:20:10.259Z,70.82
2018-06-03T11:22:38.390Z,70.55
2018-06-03T11:25:06.546Z,71.04
2018-06-03T11:27:34.746Z,70.30
2018-06-03T11:30:04.756Z,70.05
2018-06-03T11:32:32.912Z,69.46
2018-06-03T11:35:01.030Z,69.73
2018-06-03T11:37:29.194Z,69.41
2018-06-03T11:39:57.301Z,69.15
2018-06-03T11:42:25.446Z,69.11
2018-06-03T11:44:53.635Z,69.00
2018-06-03T11:47:21.806Z,67.83
2018-06-03T11:49:49.943Z,66.99
2018-06-03T11:52:18.139Z,67.02
2018-06-03T11:54:46.242Z,66.64
2018-06-03T11:57:14.383Z,66.87
2018-06-03T11:59:42.524Z,66.99
2018-06-03T12:02:10.794Z,64.95
2018-06-03T12:04:38.940Z,66.53
2018-06-03T12:07:07.112Z,65.72
2018-06-03T12:09:35.257Z,66.02
2018-06-03T12:12:03.384Z,65.55
2018-06-03T12:14:31.539Z,66.80
2018-06-03T12:16:59.652Z,66.65
2018-06-03T12:19:27.808Z,67.00
2018-06-03T12:21:55.973Z,68.13
2018-06-03T12:24:24.089Z,67.17
2018-06-03T12:26:52.371Z,67.33
2018-06-03T12:29:20.553Z,66.51
2018-06-03T12:31:48.702Z,67.07
2018-06-03T12:34:16.845Z,67.97
2018-06-03T12:36:44.964Z,68.17
2018-06-03T12:39:13.120Z,66.86
2018-06-03T12:41:41.269Z,66.24
2018-06-03T12:44:09.423Z,66.75
2018-06-03T12:46:37.548Z,64.89
2018-06-03T12:49:05.690Z,65.89
2018-06-03T12:51:33.862Z,66.25
2018-06-03T12:54:01.997Z,64.66
2018-06-03T12:56:30.132Z,64.09
2018-06-03T12:58:58.274Z,64.96
2018-06-03T13:01:26.414Z,66.32
2018-06-03T13:03:54.583Z,67.05
2018-06-03T13:06:22.717Z,68.15
2018-06-03T13:08:50.838Z,68.77
2018-06-03T13:11:18.993Z,68.46
2018-06-03T13:13:47.156Z,68.10
2018-06-03T13:16:15.284Z,66.38
2018-06-03T13:18:43.446Z,67.66
2018-06-03T13:21:11.579Z,68.72
2018-06-03T13:23:39.718Z,66.27
2018-06-03T13:26:07.850Z,66.75
2018-06-03T13:28:35.993Z,66.73
2018-06-03T13:31:04.109Z,66.44
2018-06-03T13:33:32.246Z,64.47
2018-06-03T13:36:00.390Z,65.42
2018-06-03T13:38:28.541Z,64.77
2018-06-03T13:40:56.818Z,64.82
2018-06-03T13:43:24.969Z,65.81
2018-06-03T13:45:53.099Z,65.92
2018-06-03T13:48:21.291Z,65.88
2018-06-03T13:50:49.359Z,66.35
2018-06-03T13:53:17.510Z,63.51
2018-06-03T13:55:45.660Z,65.17
2018-06-03T13:58:13.816Z,64.47
2018-06-03T14:00:41.971Z,61.33
2018-06-03T14:03:10.122Z,60.52
2018-06-03T14:05:38.285Z,61.64
2018-06-03T14:08:06.411Z,63.86
2018-06-03T14:10:34.551Z,65.23
2018-06-03T14:13:02.684Z,65.04
2018-06-03T14:15:30.817Z,63.09
2018-06-03T14:17:58.960Z,61.23
2018-06-03T14:20:27.076Z,60.87
2018-06-03T14:22:55.206Z,58.56
2018-06-03T14:25:23.392Z,58.15
2018-06-03T14:27:51.502Z,58.78
2018-06-03T14:30:19.662Z,56.73
2018-06-03T14:32:47.792Z,56.66
2018-06-03T14:35:15.912Z,57.96
2018-06-03T14:37:44.044Z,56.36
2018-06-03T14:40:12.194Z,56.07
2018-06-03T14:42:40.366Z,55.39
2018-06-03T14:45:08.482Z,54.75
2018-06-03T14:47:36.617Z,56.37
2018-06-03T14:50:04.780Z,54.12
2018-06-03T14:52:32.906Z,57.35
2018-06-03T14:55:01.028Z,59.42
2018-06-03T14:57:29.176Z,60.43
2018-06-03T14:59:57.259Z,61.32
2018-06-03T15:02:25.387Z,62.56
2018-06-03T15:04:53.546Z,60.64
2018-06-03T15:07:21.702Z,60.06
2018-06-03T15:09:49.833Z,60.47
2018-06-03T15:12:17.943Z,61.56
2018-06-03T15:14:46.111Z,60.75
2018-06-03T15:17:14.261Z,62.27
2018-06-03T15:19:42.561Z,65.28
2018-06-03T15:22:10.730Z,63.40
2018-06-03T15:24:38.961Z,60.66
2018-06-03T15:27:07.141Z,60.62
2018-06-03T15:29:35.278Z,60.94
2018-06-03T15:32:03.434Z,61.63
2018-06-03T15:34:31.584Z,61.47
2018-06-03T15:36:59.700Z,63.07
2018-06-03T15:39:28.200Z,62.53
2018-06-03T15:41:57.364Z,62.55
2018-06-03T15:44:25.527Z,61.21
2018-06-03T15:46:53.834Z,61.00
2018-06-03T15:49:22.184Z,60.39
2018-06-03T15:51:50.660Z,61.20
2018-06-03T15:54:18.805Z,61.53
2018-06-03T15:56:46.968Z,61.15
2018-06-03T15:59:15.219Z,60.47
2018-06-03T16:01:43.329Z,61.14
2018-06-03T16:04:11.471Z,60.61
2018-06-03T16:06:39.624Z,61.64
2018-06-03T16:09:07.939Z,60.97
2018-06-03T16:11:36.066Z,61.94
2018-06-03T16:14:04.226Z,61.04
2018-06-03T16:16:32.384Z,62.09
2018-06-03T16:19:00.719Z,61.40
2018-06-03T16:21:29.241Z,60.72
2018-06-03T16:23:57.376Z,60.86
2018-06-03T16:26:25.506Z,60.80
2018-06-03T16:28:53.660Z,61.50
2018-06-03T16:31:21.948Z,62.39
2018-06-03T16:33:50.067Z,62.80
2018-06-03T16:36:18.182Z,63.50
2018-06-03T16:38:47.228Z,63.73
2018-06-03T16:41:15.370Z,65.16
2018-06-03T16:43:43.498Z,65.46
2018-06-03T16:46:11.663Z,65.63
2018-06-03T16:48:39.833Z,65.99
2018-06-03T16:51:07.922Z,66.28
2018-06-03T16:53:36.060Z,66.10
2018-06-03T16:56:04.176Z,65.90
2018-06-03T16:58:32.336Z,65.93
2018-06-03T17:01:00.447Z,65.76
2018-06-03T17:03:28.587Z,66.46
2018-06-03T17:05:56.714Z,66.34
2018-06-03T17:08:24.866Z,66.12
2018-06-03T17:10:53.001Z,65.47
2018-06-03T17:13:21.171Z,66.05
2018-06-03T17:15:49.368Z,66.39
2018-06-03T17:18:17.505Z,66.29
2018-06-03T17:20:45.625Z,67.53
2018-06-03T17:23:13.781Z,68.53
2018-06-03T17:25:41.922Z,69.21
2018-06-03T17:28:10.073Z,69.38
2018-06-03T17:30:38.194Z,69.99
2018-06-03T17:33:06.347Z,70.75
2018-06-03T17:35:34.523Z,70.98
2018-06-03T17:38:02.654Z,71.33
2018-06-03T17:40:30.790Z,71.55
2018-06-03T17:42:58.919Z,71.80
2018-06-03T17:45:27.085Z,72.08
2018-06-03T17:47:56.122Z,71.93
2018-06-03T17:50:24.264Z,72.14
2018-06-03T17:52:52.393Z,71.72
2018-06-03T17:55:20.525Z,72.08
2018-06-03T17:57:48.712Z,71.79
2018-06-03T18:00:16.906Z,72.14
2018-06-03T18:02:45.038Z,72.35
2018-06-03T18:05:13.180Z,72.13
2018-06-03T18:07:41.328Z,73.19
2018-06-03T18:10:09.474Z,73.46
2018-06-03T18:12:37.630Z,73.45
2018-06-03T18:15:05.750Z,73.27
2018-06-03T18:17:33.870Z,73.57
2018-06-03T18:20:02.022Z,72.97
2018-06-03T18:22:30.196Z,73.70
2018-06-03T18:24:58.265Z,74.28
2018-06-03T18:27:27.308Z,74.25
2018-06-03T18:29:55.471Z,74.45
2018-06-03T18:32:23.614Z,75.14
2018-06-03T18:34:51.830Z,75.45
2018-06-03T18:37:19.973Z,75.52
2018-06-03T18:39:48.112Z,76.28
2018-06-03T18:42:16.239Z,77.26
2018-06-03T18:44:44.368Z,77.31
2018-06-03T18:47:12.676Z,77.01
2018-06-03T18:49:40.840Z,77.08
2018-06-03T18:52:09.199Z,77.31
2018-06-03T18:54:37.470Z,77.29
2018-06-03T18:57:05.617Z,77.18
2018-06-03T18:59:33.833Z,76.95
2018-06-03T19:02:01.939Z,77.34
2018-06-03T19:04:30.074Z,77.26
2018-06-03T19:06:58.211Z,76.93
2018-06-03T19:09:26.338Z,77.34
2018-06-03T19:11:54.490Z,77.42
2018-06-03T19:14:22.634Z,77.33
2018-06-03T19:16:50.739Z,77.26
2018-06-03T19:19:18.933Z,77.17
2018-06-03T19:21:47.404Z,77.19
2018-06-03T19:24:15.566Z,77.30
2018-06-03T19:26:43.706Z,77.21
2018-06-03T19:29:11.829Z,77.43
2018-06-03T19:31:39.992Z,77.65
2018-06-03T19:34:08.117Z,78.07
2018-06-03T19:36:36.457Z,78.18
2018-06-03T19:39:04.654Z,78.35
2018-06-03T19:41:32.775Z,78.23
2018-06-03T19:44:01.029Z,78.22
2018-06-03T19:46:29.336Z,78.31
2018-06-03T19:48:57.472Z,78.53
2018-06-03T19:51:26.328Z,78.60
2018-06-03T19:53:54.507Z,78.75
2018-06-03T19:56:22.649Z,78.78
2018-06-03T19:58:50.785Z,78.58
2018-06-03T20:01:19.067Z,78.95
2018-06-03T20:03:47.188Z,79.06
2018-06-03T20:06:15.316Z,79.07
2018-06-03T20:08:43.460Z,78.98
2018-06-03T20:11:11.587Z,79.12
2018-06-03T20:13:39.729Z,79.35
2018-06-03T20:16:07.875Z,79.41
2018-06-03T20:18:35.990Z,79.29
2018-06-03T20:21:04.135Z,79.10
2018-06-03T20:23:32.288Z,78.90
2018-06-03T20:26:00.453Z,79.11
2018-06-03T20:28:28.616Z,79.23
2018-06-03T20:30:56.724Z,79.03
2018-06-03T20:33:25.011Z,79.29
2018-06-03T20:35:53.127Z,79.51
2018-06-03T20:38:21.240Z,79.65
2018-06-03T20:40:49.561Z,79.59
2018-06-03T20:43:17.694Z,79.58
2018-06-03T20:45:45.869Z,79.57
2018-06-03T20:48:13.979Z,79.63
2018-06-03T20:50:42.111Z,79.73
2018-06-03T20:53:10.308Z,79.60
2018-06-03T20:55:38.487Z,79.82
2018-06-03T20:58:06.610Z,79.73
2018-06-03T21:00:34.778Z,79.70
2018-06-03T21:03:02.896Z,79.82
2018-06-03T21:05:31.129Z,79.94
2018-06-03T21:07:59.294Z,80.09
2018-06-03T21:10:27.476Z,79.93
2018-06-03T21:12:55.635Z,80.04
2018-06-03T21:15:23.759Z,80.11
2018-06-03T21:17:51.882Z,80.46
2018-06-03T21:20:20.271Z,80.76
2018-06-03T21:22:48.448Z,80.91
2018-06-03T21:25:16.594Z,80.83
2018-06-03T21:27:44.766Z,81.02
2018-06-03T21:30:12.888Z,81.33
2018-06-03T21:32:41.026Z,81.49
2018-06-03T21:35:09.180Z,81.67
2018-06-03T21:37:37.346Z,81.69
2018-06-03T21:40:05.470Z,81.83
2018-06-03T21:42:33.613Z,82.01
2018-06-03T21:45:01.791Z,81.88
2018-06-03T21:47:29.989Z,82.02
2018-06-03T21:49:58.199Z,82.00
2018-06-03T21:52:26.326Z,81.81
2018-06-03T21:54:54.446Z,82.01
2018-06-03T21:57:22.587Z,82.19
2018-06-03T21:59:50.782Z,82.31
2018-06-03T22:02:18.996Z,82.45
2018-06-03T22:04:47.184Z,82.53
2018-06-03T22:07:15.356Z,82.70
2018-06-03T22:09:43.509Z,82.43
2018-06-03T22:12:11.648Z,82.59
2018-06-03T22:14:39.820Z,82.76
2018-06-03T22:17:08.060Z,82.87
2018-06-03T22:19:37.101Z,83.12
2018-06-03T22:22:05.250Z,83.05
2018-06-03T22:24:33.412Z,83.12
2018-06-03T22:27:01.538Z,83.21
2018-06-03T22:29:29.696Z,83.38
2018-06-03T22:31:58.002Z,83.47
2018-06-03T22:34:26.121Z,83.80
2018-06-03T22:36:54.273Z,83.74
2018-06-03T22:39:22.449Z,83.93
2018-06-03T22:41:50.756Z,83.90
2018-06-03T22:44:18.896Z,84.03
2018-06-03T22:46:47.027Z,83.96
2018-06-03T22:49:15.171Z,84.21
2018-06-03T22:51:43.328Z,84.21
2018-06-03T22:54:11.471Z,84.05
2018-06-03T22:56:39.603Z,84.16
2018-06-03T22:59:07.758Z,84.07
2018-06-03T23:01:35.891Z,84.23
2018-06-03T23:04:04.032Z,84.19
2018-06-03T23:06:32.192Z,84.42
2018-06-03T23:09:00.404Z,84.55
2018-06-03T23:11:28.537Z,84.42
2018-06-03T23:13:56.696Z,84.77
2018-06-03T23:16:24.816Z,84.63
2018-06-03T23:18:53.120Z,84.62
2018-06-03T23:21:21.251Z,84.65
2018-06-03T23:23:49.381Z,84.76
2018-06-03T23:26:17.540Z,84.90
2018-06-03T23:28:45.652Z,84.79
2018-06-03T23:31:13.784Z,84.83
2018-06-03T23:33:41.922Z,84.78
2018-06-03T23:36:10.077Z,84.85
2018-06-03T23:38:38.214Z,84.92
2018-06-03T23:41:06.342Z,85.04
2018-06-03T23:43:34.630Z,85.20
2018-06-03T23:46:02.781Z,85.20
2018-06-03T23:48:30.913Z,85.33
2018-06-03T23:50:59.069Z,85.67
2018-06-03T23:53:27.220Z,85.58
2018-06-03T23:55:55.491Z,85.71
2018-06-03T23:58:23.649Z,85.61
